sensor_id;sensor_type;location;lat;lon;timestamp;pressure;altitude;pressure_sealevel;temperature;humidity
27304;BME280;14791;52.392;13.092;2023-07-31T00:00:21;100700.83;;;21.78;52.71
27304;BME280;14791;52.392;13.092;2023-07-31T00:02:50;100702.55;;;21.79;52.67
27304;BME280;14791;52.392;13.092;2023-07-31T00:05:19;100707.64;;;21.82;52.67
27304;BME280;14791;52.392;13.092;2023-07-31T00:07:48;100707.64;;;21.82;52.62
27304;BME280;14791;52.392;13.092;2023-07-31T00:10:17;100702.53;;;21.83;52.59
27304;BME280;14791;52.392;13.092;2023-07-31T00:12:46;100693.70;;;21.85;52.59
27304;BME280;14791;52.392;13.092;2023-07-31T00:15:15;100688.27;;;21.85;52.58
27304;BME280;14791;52.392;13.092;2023-07-31T00:17:44;100694.06;;;21.86;52.54
27304;BME280;14791;52.392;13.092;2023-07-31T00:20:13;100692.52;;;21.88;52.56
27304;BME280;14791;52.392;13.092;2023-07-31T00:22:42;100688.27;;;21.90;52.62
27304;BME280;14791;52.392;13.092;2023-07-31T00:25:11;100683.67;;;21.90;52.62
27304;BME280;14791;52.392;13.092;2023-07-31T00:27:40;100679.95;;;21.91;52.62
27304;BME280;14791;52.392;13.092;2023-07-31T00:30:12;100672.97;;;21.93;52.64
27304;BME280;14791;52.392;13.092;2023-07-31T00:32:41;100674.69;;;21.94;52.63
27304;BME280;14791;52.392;13.092;2023-07-31T00:35:10;100675.70;;;21.97;52.68
27304;BME280;14791;52.392;13.092;2023-07-31T00:37:39;100677.90;;;21.97;52.68
27304;BME280;14791;52.392;13.092;2023-07-31T00:40:08;100683.50;;;22.00;52.62
27304;BME280;14791;52.392;13.092;2023-07-31T00:42:37;100677.22;;;21.99;52.70
27304;BME280;14791;52.392;13.092;2023-07-31T00:45:07;100673.14;;;21.99;52.70
27304;BME280;14791;52.392;13.092;2023-07-31T00:47:36;100667.19;;;22.00;52.76
27304;BME280;14791;52.392;13.092;2023-07-31T00:50:05;100656.31;;;22.00;52.86
27304;BME280;14791;52.392;13.092;2023-07-31T00:52:35;100661.44;;;22.03;52.88
27304;BME280;14791;52.392;13.092;2023-07-31T00:55:05;100657.68;;;22.04;52.89
27304;BME280;14791;52.392;13.092;2023-07-31T00:57:35;100647.64;;;22.04;52.98
27304;BME280;14791;52.392;13.092;2023-07-31T01:00:06;100654.28;;;22.06;53.03
27304;BME280;14791;52.392;13.092;2023-07-31T01:02:35;100648.65;;;22.07;53.01
27304;BME280;14791;52.392;13.092;2023-07-31T01:05:05;100649.84;;;22.09;53.10
27304;BME280;14791;52.392;13.092;2023-07-31T01:07:56;100648.84;;;22.10;53.11
27304;BME280;14791;52.392;13.092;2023-07-31T01:10:26;100644.41;;;22.13;53.06
27304;BME280;14791;52.392;13.092;2023-07-31T01:12:57;100645.61;;;22.11;53.09
27304;BME280;14791;52.392;13.092;2023-07-31T01:15:26;100645.09;;;22.11;53.11
27304;BME280;14791;52.392;13.092;2023-07-31T01:17:55;100633.53;;;22.13;53.13
27304;BME280;14791;52.392;13.092;2023-07-31T01:20:27;100632.86;;;22.15;53.26
27304;BME280;14791;52.392;13.092;2023-07-31T01:23:30;100618.58;;;22.17;53.26
27304;BME280;14791;52.392;13.092;2023-07-31T01:26:16;100617.38;;;22.20;53.25
27304;BME280;14791;52.392;13.092;2023-07-31T01:29:24;100628.09;;;22.17;53.26
27304;BME280;14791;52.392;13.092;2023-07-31T01:31:25;100632.34;;;22.16;53.40
27304;BME280;14791;52.392;13.092;2023-07-31T01:33:58;100631.14;;;22.14;53.40
27304;BME280;14791;52.392;13.092;2023-07-31T01:36:28;100634.90;;;22.17;53.28
27304;BME280;14791;52.392;13.092;2023-07-31T01:39:01;100633.86;;;22.18;53.25
27304;BME280;14791;52.392;13.092;2023-07-31T01:41:30;100631.85;;;22.20;53.32
27304;BME280;14791;52.392;13.092;2023-07-31T01:43:59;100625.05;;;22.20;53.38
27304;BME280;14791;52.392;13.092;2023-07-31T01:46:28;100620.62;;;22.23;53.21
27304;BME280;14791;52.392;13.092;2023-07-31T01:48:57;100622.34;;;22.24;53.20
27304;BME280;14791;52.392;13.092;2023-07-31T01:51:26;100625.90;;;22.25;53.27
27304;BME280;14791;52.392;13.092;2023-07-31T01:53:54;100617.55;;;22.26;52.96
27304;BME280;14791;52.392;13.092;2023-07-31T01:56:24;100622.98;;;22.26;52.83
27304;BME280;14791;52.392;13.092;2023-07-31T01:58:54;100611.45;;;22.24;52.93
27304;BME280;14791;52.392;13.092;2023-07-31T02:01:23;100616.54;;;22.23;52.98
27304;BME280;14791;52.392;13.092;2023-07-31T02:03:52;100617.58;;;22.22;53.01
27304;BME280;14791;52.392;13.092;2023-07-31T02:06:23;100612.62;;;22.22;52.96
27304;BME280;14791;52.392;13.092;2023-07-31T02:08:52;100610.09;;;22.20;53.00
27304;BME280;14791;52.392;13.092;2023-07-31T02:11:21;100603.94;;;22.18;53.11
27304;BME280;14791;52.392;13.092;2023-07-31T02:13:50;100603.94;;;22.18;53.14
27304;BME280;14791;52.392;13.092;2023-07-31T02:16:19;100604.46;;;22.18;53.21
27304;BME280;14791;52.392;13.092;2023-07-31T02:18:48;100599.53;;;22.17;53.21
27304;BME280;14791;52.392;13.092;2023-07-31T02:21:17;100592.38;;;22.16;53.24
27304;BME280;14791;52.392;13.092;2023-07-31T02:23:46;100592.05;;;22.15;53.28
27304;BME280;14791;52.392;13.092;2023-07-31T02:26:15;100583.54;;;22.14;53.46
27304;BME280;14791;52.392;13.092;2023-07-31T02:28:43;100588.98;;;22.14;53.41
27304;BME280;14791;52.392;13.092;2023-07-31T02:31:12;100588.66;;;22.13;53.32
27304;BME280;14791;52.392;13.092;2023-07-31T02:33:41;100588.30;;;22.12;53.28
27304;BME280;14791;52.392;13.092;2023-07-31T02:36:10;100580.14;;;22.12;53.39
27304;BME280;14791;52.392;13.092;2023-07-31T02:38:39;100583.90;;;22.11;53.44
27304;BME280;14791;52.392;13.092;2023-07-31T02:41:08;100584.73;;;22.12;53.41
27304;BME280;14791;52.392;13.092;2023-07-31T02:43:37;100587.98;;;22.11;53.49
27304;BME280;14791;52.392;13.092;2023-07-31T02:46:06;100584.22;;;22.12;53.48
27304;BME280;14791;52.392;13.092;2023-07-31T02:48:35;100587.98;;;22.11;53.34
27304;BME280;14791;52.392;13.092;2023-07-31T02:51:04;100584.41;;;22.11;53.47
27304;BME280;14791;52.392;13.092;2023-07-31T02:53:33;100586.45;;;22.08;53.43
27304;BME280;14791;52.392;13.092;2023-07-31T02:56:02;100582.89;;;22.08;53.53
27304;BME280;14791;52.392;13.092;2023-07-31T02:58:31;100584.73;;;22.07;53.46
27304;BME280;14791;52.392;13.092;2023-07-31T03:01:00;100578.13;;;22.06;53.38
27304;BME280;14791;52.392;13.092;2023-07-31T03:03:30;100573.89;;;22.03;53.38
27304;BME280;14791;52.392;13.092;2023-07-31T03:05:59;100578.48;;;22.03;53.48
27304;BME280;14791;52.392;13.092;2023-07-31T03:08:28;100572.02;;;22.00;53.45
27304;BME280;14791;52.392;13.092;2023-07-31T03:10:57;100575.25;;;21.99;53.41
27304;BME280;14791;52.392;13.092;2023-07-31T03:13:26;100574.77;;;21.96;53.34
27304;BME280;14791;52.392;13.092;2023-07-31T03:15:55;100573.73;;;21.93;53.43
27304;BME280;14791;52.392;13.092;2023-07-31T03:18:24;100571.36;;;21.90;53.34
27304;BME280;14791;52.392;13.092;2023-07-31T03:20:52;100567.64;;;21.86;53.30
27304;BME280;14791;52.392;13.092;2023-07-31T03:23:21;100568.99;;;21.82;53.30
27304;BME280;14791;52.392;13.092;2023-07-31T03:25:58;100565.59;;;21.80;53.35
27304;BME280;14791;52.392;13.092;2023-07-31T03:28:29;100564.42;;;21.79;53.43
27304;BME280;14791;52.392;13.092;2023-07-31T03:30:58;100556.59;;;21.76;53.57
27304;BME280;14791;52.392;13.092;2023-07-31T03:33:27;100559.50;;;21.74;53.45
27304;BME280;14791;52.392;13.092;2023-07-31T03:35:57;100553.39;;;21.72;53.31
27304;BME280;14791;52.392;13.092;2023-07-31T03:38:26;100552.70;;;21.70;53.33
27304;BME280;14791;52.392;13.092;2023-07-31T03:40:55;100555.25;;;21.68;53.38
27304;BME280;14791;52.392;13.092;2023-07-31T03:43:24;100547.78;;;21.65;53.48
27304;BME280;14791;52.392;13.092;2023-07-31T03:45:53;100542.50;;;21.64;53.57
27304;BME280;14791;52.392;13.092;2023-07-31T03:48:22;100545.41;;;21.62;53.51
27304;BME280;14791;52.392;13.092;2023-07-31T03:50:51;100540.98;;;21.61;53.58
27304;BME280;14791;52.392;13.092;2023-07-31T03:53:20;100544.22;;;21.61;53.73
27304;BME280;14791;52.392;13.092;2023-07-31T03:55:49;100540.14;;;21.61;53.66
27304;BME280;14791;52.392;13.092;2023-07-31T03:58:18;100547.97;;;21.60;53.71
27304;BME280;14791;52.392;13.092;2023-07-31T04:00:47;100545.25;;;21.60;53.76
27304;BME280;14791;52.392;13.092;2023-07-31T04:03:16;100541.50;;;21.61;53.70
27304;BME280;14791;52.392;13.092;2023-07-31T04:05:45;100539.62;;;21.61;53.69
27304;BME280;14791;52.392;13.092;2023-07-31T04:08:14;100541.50;;;21.61;53.69
27304;BME280;14791;52.392;13.092;2023-07-31T04:10:43;100539.10;;;21.62;53.70
27304;BME280;14791;52.392;13.092;2023-07-31T04:13:12;100536.06;;;21.61;53.65
27304;BME280;14791;52.392;13.092;2023-07-31T04:15:41;100536.06;;;21.61;53.68
27304;BME280;14791;52.392;13.092;2023-07-31T04:18:10;100533.70;;;21.58;53.71
27304;BME280;14791;52.392;13.092;2023-07-31T04:20:39;100526.06;;;21.57;53.71
27304;BME280;14791;52.392;13.092;2023-07-31T04:23:07;100527.06;;;21.56;53.87
27304;BME280;14791;52.392;13.092;2023-07-31T04:25:36;100517.70;;;21.55;53.99
27304;BME280;14791;52.392;13.092;2023-07-31T04:28:05;100517.22;;;21.55;54.17
27304;BME280;14791;52.392;13.092;2023-07-31T04:30:35;100515.34;;;21.56;54.21
27304;BME280;14791;52.392;13.092;2023-07-31T04:33:04;100512.12;;;21.56;54.37
27304;BME280;14791;52.392;13.092;2023-07-31T04:35:33;100513.31;;;21.58;54.51
27304;BME280;14791;52.392;13.092;2023-07-31T04:38:02;100504.48;;;21.60;54.45
27304;BME280;14791;52.392;13.092;2023-07-31T04:40:30;100500.73;;;21.61;54.47
27304;BME280;14791;52.392;13.092;2023-07-31T04:42:59;100498.70;;;21.63;54.55
27304;BME280;14791;52.392;13.092;2023-07-31T04:45:28;100495.63;;;21.66;54.67
27304;BME280;14791;52.392;13.092;2023-07-31T04:47:57;100504.45;;;21.68;54.78
27304;BME280;14791;52.392;13.092;2023-07-31T04:50:26;100497.15;;;21.73;54.88
27304;BME280;14791;52.392;13.092;2023-07-31T04:52:55;100498.83;;;21.78;54.97
27304;BME280;14791;52.392;13.092;2023-07-31T04:55:24;100503.42;;;21.81;55.09
27304;BME280;14791;52.392;13.092;2023-07-31T04:57:53;100495.23;;;21.85;55.00
27304;BME280;14791;52.392;13.092;2023-07-31T05:00:22;100498.63;;;21.87;55.00
27304;BME280;14791;52.392;13.092;2023-07-31T05:02:51;100503.23;;;21.91;55.03
27304;BME280;14791;52.392;13.092;2023-07-31T05:05:20;100499.63;;;21.95;54.86
27304;BME280;14791;52.392;13.092;2023-07-31T05:07:49;100498.95;;;21.97;54.85
27304;BME280;14791;52.392;13.092;2023-07-31T05:10:18;100505.39;;;22.00;54.67
27304;BME280;14791;52.392;13.092;2023-07-31T05:12:47;100504.39;;;22.01;54.52
27304;BME280;14791;52.392;13.092;2023-07-31T05:15:16;100509.47;;;22.00;54.42
27304;BME280;14791;52.392;13.092;2023-07-31T05:17:45;100502.35;;;21.95;54.40
27304;BME280;14791;52.392;13.092;2023-07-31T05:20:14;100505.91;;;21.95;54.47
27304;BME280;14791;52.392;13.092;2023-07-31T05:22:43;100500.31;;;21.93;54.51
27304;BME280;14791;52.392;13.092;2023-07-31T05:25:12;100505.43;;;21.92;54.65
27304;BME280;14791;52.392;13.092;2023-07-31T05:27:41;100498.95;;;21.93;54.62
27304;BME280;14791;52.392;13.092;2023-07-31T05:30:10;100499.31;;;21.94;54.59
27304;BME280;14791;52.392;13.092;2023-07-31T05:32:39;100493.35;;;21.94;54.58
27304;BME280;14791;52.392;13.092;2023-07-31T05:35:08;100497.59;;;21.97;54.65
27304;BME280;14791;52.392;13.092;2023-07-31T05:37:37;100495.03;;;21.99;54.80
27304;BME280;14791;52.392;13.092;2023-07-31T05:40:07;100486.20;;;22.01;54.76
27304;BME280;14791;52.392;13.092;2023-07-31T05:42:36;100487.87;;;22.02;54.73
27304;BME280;14791;52.392;13.092;2023-07-31T05:45:09;100488.39;;;22.02;54.77
27304;BME280;14791;52.392;13.092;2023-07-31T05:47:38;100485.68;;;21.98;54.71
27304;BME280;14791;52.392;13.092;2023-07-31T05:50:08;100481.28;;;21.93;54.83
27304;BME280;14791;52.392;13.092;2023-07-31T05:52:37;100481.64;;;21.90;54.92
27304;BME280;14791;52.392;13.092;2023-07-31T05:55:06;100477.73;;;21.88;54.95
27304;BME280;14791;52.392;13.092;2023-07-31T05:57:35;100478.60;;;21.84;55.03
27304;BME280;14791;52.392;13.092;2023-07-31T06:00:05;100480.97;;;21.83;55.14
27304;BME280;14791;52.392;13.092;2023-07-31T06:02:34;100480.48;;;21.80;55.29
27304;BME280;14791;52.392;13.092;2023-07-31T06:05:05;100476.24;;;21.77;55.36
27304;BME280;14791;52.392;13.092;2023-07-31T06:07:34;100477.60;;;21.77;55.55
27304;BME280;14791;52.392;13.092;2023-07-31T06:10:04;100480.84;;;21.77;55.71
27304;BME280;14791;52.392;13.092;2023-07-31T06:12:34;100480.32;;;21.77;55.85
27304;BME280;14791;52.392;13.092;2023-07-31T06:15:03;100485.08;;;21.79;55.84
27304;BME280;14791;52.392;13.092;2023-07-31T06:17:33;100480.48;;;21.80;55.89
27304;BME280;14791;52.392;13.092;2023-07-31T06:20:02;100475.05;;;21.80;56.05
27304;BME280;14791;52.392;13.092;2023-07-31T06:22:33;100476.23;;;21.81;56.08
27304;BME280;14791;52.392;13.092;2023-07-31T06:25:02;100478.96;;;21.81;56.08
27304;BME280;14791;52.392;13.092;2023-07-31T06:27:31;100480.32;;;21.81;56.11
27304;BME280;14791;52.392;13.092;2023-07-31T06:30:00;100470.80;;;21.81;56.04
27304;BME280;14791;52.392;13.092;2023-07-31T06:32:29;100466.89;;;21.80;56.09
27304;BME280;14791;52.392;13.092;2023-07-31T06:34:58;100467.22;;;21.81;56.10
27304;BME280;14791;52.392;13.092;2023-07-31T06:37:27;100465.37;;;21.81;56.09
27304;BME280;14791;52.392;13.092;2023-07-31T06:39:56;100466.73;;;21.81;56.10
27304;BME280;14791;52.392;13.092;2023-07-31T06:42:25;100472.48;;;21.82;56.27
27304;BME280;14791;52.392;13.092;2023-07-31T06:44:54;100467.73;;;21.84;56.25
27304;BME280;14791;52.392;13.092;2023-07-31T06:47:23;100477.24;;;21.84;56.20
27304;BME280;14791;52.392;13.092;2023-07-31T06:49:52;100471.45;;;21.83;56.18
27304;BME280;14791;52.392;13.092;2023-07-31T06:52:21;100475.05;;;21.80;56.24
27304;BME280;14791;52.392;13.092;2023-07-31T06:55:04;100482.69;;;21.76;56.42
27304;BME280;14791;52.392;13.092;2023-07-31T06:57:34;100477.28;;;21.72;56.43
27304;BME280;14791;52.392;13.092;2023-07-31T07:00:03;100473.56;;;21.65;56.54
27304;BME280;14791;52.392;13.092;2023-07-31T07:02:32;100475.23;;;21.62;56.81
27304;BME280;14791;52.392;13.092;2023-07-31T07:05:01;100475.59;;;21.59;56.98
27304;BME280;14791;52.392;13.092;2023-07-31T07:07:30;100481.22;;;21.57;57.06
27304;BME280;14791;52.392;13.092;2023-07-31T07:09:59;100474.91;;;21.57;57.23
27304;BME280;14791;52.392;13.092;2023-07-31T07:12:30;100478.98;;;21.57;57.31
27304;BME280;14791;52.392;13.092;2023-07-31T07:14:59;100478.50;;;21.57;57.38
27304;BME280;14791;52.392;13.092;2023-07-31T07:17:29;100466.77;;;21.57;57.52
27304;BME280;14791;52.392;13.092;2023-07-31T07:20:01;100475.95;;;21.56;57.36
27304;BME280;14791;52.392;13.092;2023-07-31T07:22:31;100474.94;;;21.53;57.51
27304;BME280;14791;52.392;13.092;2023-07-31T07:25:00;100473.23;;;21.52;57.62
27304;BME280;14791;52.392;13.092;2023-07-31T07:27:29;100476.98;;;21.51;57.78
27304;BME280;14791;52.392;13.092;2023-07-31T07:29:58;100478.66;;;21.52;57.94
27304;BME280;14791;52.392;13.092;2023-07-31T07:32:26;100479.34;;;21.54;58.23
27304;BME280;14791;52.392;13.092;2023-07-31T07:34:56;100474.75;;;21.58;58.53
27304;BME280;14791;52.392;13.092;2023-07-31T07:37:25;100475.08;;;21.63;58.44
27304;BME280;14791;52.392;13.092;2023-07-31T07:39:54;100477.28;;;21.68;58.48
27304;BME280;14791;52.392;13.092;2023-07-31T07:42:22;100475.92;;;21.72;58.50
27304;BME280;14791;52.392;13.092;2023-07-31T07:44:51;100469.80;;;21.74;58.72
27304;BME280;14791;52.392;13.092;2023-07-31T07:47:20;100464.34;;;21.78;58.67
27304;BME280;14791;52.392;13.092;2023-07-31T07:49:49;100465.37;;;21.81;58.53
27304;BME280;14791;52.392;13.092;2023-07-31T07:52:18;100467.89;;;21.83;58.23
27304;BME280;14791;52.392;13.092;2023-07-31T07:54:47;100460.25;;;21.82;58.02
27304;BME280;14791;52.392;13.092;2023-07-31T07:57:16;100459.58;;;21.80;58.06
27304;BME280;14791;52.392;13.092;2023-07-31T07:59:46;100459.42;;;21.78;58.42
27304;BME280;14791;52.392;13.092;2023-07-31T08:02:15;100463.33;;;21.79;58.60
27304;BME280;14791;52.392;13.092;2023-07-31T08:04:44;100462.30;;;21.80;58.59
27304;BME280;14791;52.392;13.092;2023-07-31T08:07:13;100451.78;;;21.81;58.68
27304;BME280;14791;52.392;13.092;2023-07-31T08:09:41;100448.70;;;21.84;58.76
27304;BME280;14791;52.392;13.092;2023-07-31T08:12:10;100451.90;;;21.88;58.75
27304;BME280;14791;52.392;13.092;2023-07-31T08:14:39;100452.58;;;21.90;58.84
27304;BME280;14791;52.392;13.092;2023-07-31T08:17:08;100457.17;;;21.94;58.84
27304;BME280;14791;52.392;13.092;2023-07-31T08:19:37;100445.57;;;22.00;58.70
27304;BME280;14791;52.392;13.092;2023-07-31T08:22:06;100451.33;;;22.05;58.75
27304;BME280;14791;52.392;13.092;2023-07-31T08:24:35;100443.84;;;22.11;59.05
27304;BME280;14791;52.392;13.092;2023-07-31T08:27:05;100447.86;;;22.19;59.02
27304;BME280;14791;52.392;13.092;2023-07-31T08:29:34;100447.20;;;22.25;58.93
27304;BME280;14791;52.392;13.092;2023-07-31T08:32:04;100442.06;;;22.30;58.79
27304;BME280;14791;52.392;13.092;2023-07-31T08:34:33;100449.17;;;22.36;58.65
27304;BME280;14791;52.392;13.092;2023-07-31T08:37:02;100446.13;;;22.39;58.62
27304;BME280;14791;52.392;13.092;2023-07-31T08:39:30;100446.75;;;22.45;58.56
27304;BME280;14791;52.392;13.092;2023-07-31T08:42:00;100455.22;;;22.50;58.34
27304;BME280;14791;52.392;13.092;2023-07-31T08:44:30;100442.27;;;22.56;58.10
27304;BME280;14791;52.392;13.092;2023-07-31T08:47:00;100453.14;;;22.60;57.86
27304;BME280;14791;52.392;13.092;2023-07-31T08:49:31;100454.30;;;22.62;57.79
27304;BME280;14791;52.392;13.092;2023-07-31T08:52:00;100450.72;;;22.65;57.80
27304;BME280;14791;52.392;13.092;2023-07-31T08:54:30;100444.73;;;22.70;57.72
27304;BME280;14791;52.392;13.092;2023-07-31T08:57:01;100451.32;;;22.76;57.64
27304;BME280;14791;52.392;13.092;2023-07-31T08:59:31;100448.38;;;22.81;57.54
27304;BME280;14791;52.392;13.092;2023-07-31T09:02:03;100447.84;;;22.86;57.32
27304;BME280;14791;52.392;13.092;2023-07-31T09:04:33;100444.73;;;22.89;57.40
27304;BME280;14791;52.392;13.092;2023-07-31T09:07:03;100451.90;;;22.90;57.13
27304;BME280;14791;52.392;13.092;2023-07-31T09:09:32;100447.98;;;22.88;56.63
27304;BME280;14791;52.392;13.092;2023-07-31T09:12:02;100445.80;;;22.84;56.45
27304;BME280;14791;52.392;13.092;2023-07-31T09:14:31;100440.06;;;22.79;56.49
27304;BME280;14791;52.392;13.092;2023-07-31T09:17:01;100440.43;;;22.76;56.57
27304;BME280;14791;52.392;13.092;2023-07-31T09:19:35;100445.20;;;22.73;56.80
27304;BME280;14791;52.392;13.092;2023-07-31T09:22:07;100439.76;;;22.73;57.07
27304;BME280;14791;52.392;13.092;2023-07-31T09:24:36;100434.98;;;22.76;57.37
27304;BME280;14791;52.392;13.092;2023-07-31T09:27:06;100434.77;;;22.81;57.44
27304;BME280;14791;52.392;13.092;2023-07-31T09:29:35;100434.22;;;22.86;57.35
27304;BME280;14791;52.392;13.092;2023-07-31T09:32:04;100432.14;;;22.92;57.13
27304;BME280;14791;52.392;13.092;2023-07-31T09:34:39;100430.41;;;22.95;57.02
27304;BME280;14791;52.392;13.092;2023-07-31T09:37:08;100435.02;;;22.99;57.20
27304;BME280;14791;52.392;13.092;2023-07-31T09:39:47;100441.92;;;23.05;57.48
27304;BME280;14791;52.392;13.092;2023-07-31T09:42:24;100432.33;;;23.13;57.50
27304;BME280;14791;52.392;13.092;2023-07-31T09:44:54;100434.30;;;23.20;57.45
27304;BME280;14791;52.392;13.092;2023-07-31T09:47:23;100427.75;;;23.29;57.25
27304;BME280;14791;52.392;13.092;2023-07-31T09:49:53;100426.19;;;23.34;56.96
27304;BME280;14791;52.392;13.092;2023-07-31T09:52:22;100428.32;;;23.39;56.93
27304;BME280;14791;52.392;13.092;2023-07-31T09:54:51;100421.69;;;23.42;56.91
27304;BME280;14791;52.392;13.092;2023-07-31T09:57:21;100424.20;;;23.43;56.80
27304;BME280;14791;52.392;13.092;2023-07-31T09:59:52;100422.32;;;23.44;56.85
27304;BME280;14791;52.392;13.092;2023-07-31T10:02:23;100435.10;;;23.43;56.89
27304;BME280;14791;52.392;13.092;2023-07-31T10:04:56;100425.25;;;23.42;56.79
27304;BME280;14791;52.392;13.092;2023-07-31T10:07:28;100424.91;;;23.41;56.87
27304;BME280;14791;52.392;13.092;2023-07-31T10:10:00;100419.80;;;23.42;57.21
27304;BME280;14791;52.392;13.092;2023-07-31T10:12:30;100415.51;;;23.44;57.44
27304;BME280;14791;52.392;13.092;2023-07-31T10:15:00;100415.33;;;23.45;57.62
27304;BME280;14791;52.392;13.092;2023-07-31T10:17:30;100414.25;;;23.50;57.93
27304;BME280;14791;52.392;13.092;2023-07-31T10:19:59;100412.81;;;23.59;58.04
27304;BME280;14791;52.392;13.092;2023-07-31T10:22:34;100403.48;;;23.68;58.00
27304;BME280;14791;52.392;13.092;2023-07-31T10:25:04;100405.47;;;23.78;58.12
27304;BME280;14791;52.392;13.092;2023-07-31T10:27:36;100399.02;;;23.90;58.15
27304;BME280;14791;52.392;13.092;2023-07-31T10:30:08;100398.64;;;24.04;58.10
27304;BME280;14791;52.392;13.092;2023-07-31T10:32:40;100392.31;;;24.18;57.89
27304;BME280;14791;52.392;13.092;2023-07-31T10:35:10;100391.25;;;24.34;57.60
27304;BME280;14791;52.392;13.092;2023-07-31T10:37:41;100390.69;;;24.49;57.41
27304;BME280;14791;52.392;13.092;2023-07-31T10:42:55;100381.73;;;24.77;56.55
27304;BME280;14791;52.392;13.092;2023-07-31T10:45:39;100368.71;;;24.90;56.35
27304;BME280;14791;52.392;13.092;2023-07-31T10:48:16;100370.20;;;25.03;56.54
27304;BME280;14791;52.392;13.092;2023-07-31T10:50:54;100359.31;;;25.20;56.06
27304;BME280;14791;52.392;13.092;2023-07-31T10:53:30;100359.66;;;25.39;55.70
27304;BME280;14791;52.392;13.092;2023-07-31T10:56:01;100357.25;;;25.57;54.95
27304;BME280;14791;52.392;13.092;2023-07-31T10:58:31;100365.63;;;25.73;54.17
27304;BME280;14791;52.392;13.092;2023-07-31T11:01:01;100353.27;;;25.84;53.20
27304;BME280;14791;52.392;13.092;2023-07-31T11:03:50;100356.91;;;25.91;52.84
27304;BME280;14791;52.392;13.092;2023-07-31T11:06:21;100338.09;;;25.99;52.36
27304;BME280;14791;52.392;13.092;2023-07-31T11:08:51;100360.41;;;26.02;52.27
27304;BME280;14791;52.392;13.092;2023-07-31T11:11:20;100357.59;;;26.06;52.09
27304;BME280;14791;52.392;13.092;2023-07-31T11:13:56;100359.82;;;26.14;51.85
27304;BME280;14791;52.392;13.092;2023-07-31T11:16:23;100366.16;;;26.21;51.73
27304;BME280;14791;52.392;13.092;2023-07-31T11:18:53;100365.95;;;26.29;51.74
27304;BME280;14791;52.392;13.092;2023-07-31T11:21:25;100361.79;;;26.40;51.42
27304;BME280;14791;52.392;13.092;2023-07-31T11:23:58;100364.12;;;26.49;50.89
27304;BME280;14791;52.392;13.092;2023-07-31T11:26:27;100360.26;;;26.55;50.47
27304;BME280;14791;52.392;13.092;2023-07-31T11:28:58;100357.23;;;26.60;50.20
27304;BME280;14791;52.392;13.092;2023-07-31T11:31:27;100365.56;;;26.63;49.92
27304;BME280;14791;52.392;13.092;2023-07-31T11:34:06;100363.66;;;26.63;49.68
27304;BME280;14791;52.392;13.092;2023-07-31T11:36:35;100353.00;;;26.64;49.46
27304;BME280;14791;52.392;13.092;2023-07-31T11:39:10;100356.70;;;26.61;49.38
27304;BME280;14791;52.392;13.092;2023-07-31T11:41:41;100361.84;;;26.60;49.32
27304;BME280;14791;52.392;13.092;2023-07-31T11:44:10;100354.05;;;26.57;49.27
27304;BME280;14791;52.392;13.092;2023-07-31T11:46:39;100355.63;;;26.55;49.21
27304;BME280;14791;52.392;13.092;2023-07-31T11:49:09;100354.98;;;26.53;49.06
27304;BME280;14791;52.392;13.092;2023-07-31T11:51:38;100351.06;;;26.51;49.30
27304;BME280;14791;52.392;13.092;2023-07-31T11:54:07;100360.80;;;26.54;49.44
27304;BME280;14791;52.392;13.092;2023-07-31T11:56:36;100359.10;;;26.60;49.50
27304;BME280;14791;52.392;13.092;2023-07-31T11:59:05;100360.38;;;26.64;49.30
27304;BME280;14791;52.392;13.092;2023-07-31T12:01:36;100354.81;;;26.68;49.18
27304;BME280;14791;52.392;13.092;2023-07-31T12:04:05;100354.58;;;26.69;49.21
27304;BME280;14791;52.392;13.092;2023-07-31T12:06:37;100344.37;;;26.74;49.13
27304;BME280;14791;52.392;13.092;2023-07-31T12:09:06;100347.02;;;26.78;48.93
27304;BME280;14791;52.392;13.092;2023-07-31T12:11:48;100340.16;;;26.78;48.70
27304;BME280;14791;52.392;13.092;2023-07-31T12:14:21;100334.59;;;26.82;48.44
27304;BME280;14791;52.392;13.092;2023-07-31T12:17:04;100330.67;;;26.81;48.46
27304;BME280;14791;52.392;13.092;2023-07-31T12:19:32;100331.84;;;26.82;48.39
27304;BME280;14791;52.392;13.092;2023-07-31T12:22:02;100332.88;;;26.81;48.13
27304;BME280;14791;52.392;13.092;2023-07-31T12:24:31;100328.77;;;26.81;48.03
27304;BME280;14791;52.392;13.092;2023-07-31T12:27:08;100336.48;;;26.82;48.14
27304;BME280;14791;52.392;13.092;2023-07-31T12:29:36;100331.12;;;26.84;48.01
27304;BME280;14791;52.392;13.092;2023-07-31T12:32:18;100325.50;;;26.88;47.96
27304;BME280;14791;52.392;13.092;2023-07-31T12:34:42;100328.45;;;26.93;48.03
27304;BME280;14791;52.392;13.092;2023-07-31T12:37:07;100326.24;;;27.00;47.84
27304;BME280;14791;52.392;13.092;2023-07-31T12:39:37;100314.95;;;27.05;47.65
27304;BME280;14791;52.392;13.092;2023-07-31T12:42:06;100315.58;;;27.14;47.54
27304;BME280;14791;52.392;13.092;2023-07-31T12:44:35;100316.44;;;27.21;47.34
27304;BME280;14791;52.392;13.092;2023-07-31T12:47:05;100305.77;;;27.29;47.14
27304;BME280;14791;52.392;13.092;2023-07-31T12:49:34;100301.75;;;27.31;46.76
27304;BME280;14791;52.392;13.092;2023-07-31T12:52:03;100300.38;;;27.31;46.58
27304;BME280;14791;52.392;13.092;2023-07-31T12:54:36;100297.34;;;27.30;46.53
27304;BME280;14791;52.392;13.092;2023-07-31T12:57:05;100293.97;;;27.28;46.50